Time;durP1;ratioP1;P1;durP2;ratioP2;P2;SDS_P1;SDS_P2;PMS_P1;PMS_P2;Temp;Humidity;BMP_temperature;BMP_pressure;BME280_temperature;BME280_humidity;BME280_pressure;Samples;Min_cycle;Max_cycle;Signal;HPM_P1;HPM_P2
2023/12/24 00:00:13;;;;;;;5.22;0.90;;;12.60;75.20;;;;;;5016134;28;20116;-85
2023/12/24 00:02:39;;;;;;;3.35;0.88;;;12.60;75.20;;;;;;5035189;28;20029;-85
2023/12/24 00:05:05;;;;;;;2.63;0.82;;;12.60;75.20;;;;;;5032292;28;20040;-85
2023/12/24 00:07:31;;;;;;;3.10;0.75;;;12.60;75.30;;;;;;5021189;28;20024;-85
2023/12/24 00:09:57;;;;;;;2.97;0.57;;;12.60;75.30;;;;;;5037299;28;20120;-85
2023/12/24 00:12:23;;;;;;;4.68;1.00;;;12.60;75.30;;;;;;5020958;28;20044;-85
2023/12/24 00:14:50;;;;;;;3.97;0.90;;;12.60;75.40;;;;;;5037080;28;20542;-85
2023/12/24 00:17:16;;;;;;;1.42;0.63;;;12.70;75.60;;;;;;5030697;28;20313;-85
2023/12/24 00:19:42;;;;;;;2.03;1.40;;;12.70;75.60;;;;;;5034673;28;20029;-83
2023/12/24 00:22:10;;;;;;;1.70;0.57;;;12.70;75.60;;;;;;5053360;28;20052;-85
2023/12/24 00:24:36;;;;;;;2.33;0.45;;;12.70;75.70;;;;;;5052051;28;20024;-85
2023/12/24 00:27:02;;;;;;;1.25;0.85;;;12.70;75.70;;;;;;5051474;28;20401;-84
2023/12/24 00:29:28;;;;;;;4.57;0.70;;;12.70;75.70;;;;;;5034566;28;20033;-85
2023/12/24 00:31:54;;;;;;;5.10;1.00;;;12.70;75.70;;;;;;5033467;28;20138;-86
2023/12/24 00:34:20;;;;;;;5.28;0.75;;;12.70;75.80;;;;;;5052873;28;20029;-86
2023/12/24 00:36:46;;;;;;;3.55;0.73;;;12.70;75.80;;;;;;5038186;28;20021;-84
2023/12/24 00:39:15;;;;;;;4.68;1.05;;;12.70;75.80;;;;;;5031995;28;20025;-83
2023/12/24 00:41:42;;;;;;;1.70;0.50;;;12.70;75.90;;;;;;5058844;28;20055;-84
2023/12/24 00:44:08;;;;;;;4.35;0.93;;;12.70;75.90;;;;;;5039352;28;20595;-85
2023/12/24 00:46:34;;;;;;;4.15;0.70;;;12.70;76.00;;;;;;5036431;28;20076;-84
2023/12/24 00:49:00;;;;;;;4.57;0.75;;;12.70;76.00;;;;;;5039007;28;20064;-85
2023/12/24 00:51:26;;;;;;;3.20;0.90;;;12.70;76.00;;;;;;5041249;28;20037;-84
2023/12/24 00:53:53;;;;;;;2.80;0.60;;;12.70;76.10;;;;;;5036601;28;20079;-82
2023/12/24 00:56:19;;;;;;;2.13;0.80;;;12.70;76.20;;;;;;5049154;28;20033;-84
2023/12/24 00:58:48;;;;;;;4.00;0.90;;;12.70;76.10;;;;;;5040483;28;20131;-84
2023/12/24 01:01:14;;;;;;;6.68;1.88;;;12.70;76.20;;;;;;5038430;28;20045;-83
2023/12/24 01:03:40;;;;;;;3.38;0.60;;;12.80;76.40;;;;;;5058629;28;20024;-84
2023/12/24 01:06:07;;;;;;;2.83;0.88;;;12.70;76.30;;;;;;5016612;28;20124;-83
2023/12/24 01:08:34;;;;;;;5.97;0.90;;;12.80;76.50;;;;;;5030952;28;20596;-84
2023/12/24 01:11:00;;;;;;;2.17;0.82;;;12.80;76.50;;;;;;5050828;28;20235;-82
2023/12/24 01:13:27;;;;;;;5.75;1.67;;;12.80;76.50;;;;;;5055098;28;20037;-83
2023/12/24 01:15:53;;;;;;;4.40;1.40;;;12.80;76.60;;;;;;5037159;28;20143;-82
2023/12/24 01:18:21;;;;;;;5.22;2.05;;;12.80;76.60;;;;;;5038154;28;20028;-84
2023/12/24 01:20:47;;;;;;;5.18;1.10;;;12.80;76.60;;;;;;5048176;28;20238;-83
2023/12/24 01:23:15;;;;;;;5.10;1.63;;;12.80;76.60;;;;;;5055479;28;20298;-86
2023/12/24 01:25:42;;;;;;;6.38;1.38;;;12.80;76.70;;;;;;5026309;28;20041;-85
2023/12/24 01:28:08;;;;;;;3.03;1.13;;;12.80;76.70;;;;;;5037455;28;20159;-85
2023/12/24 01:30:35;;;;;;;7.43;0.90;;;12.80;76.70;;;;;;5024991;28;20047;-88
2023/12/24 01:33:01;;;;;;;3.80;1.50;;;12.80;76.80;;;;;;5051860;28;20049;-88
2023/12/24 01:35:27;;;;;;;5.47;1.17;;;12.80;76.80;;;;;;5056381;28;20156;-86
2023/12/24 01:37:54;;;;;;;4.45;1.20;;;12.80;76.90;;;;;;5038438;28;20060;-87
2023/12/24 01:40:20;;;;;;;6.50;0.80;;;12.90;77.10;;;;;;5050021;28;20040;-86
2023/12/24 01:42:46;;;;;;;3.55;0.80;;;12.80;76.90;;;;;;5042797;28;20049;-86
2023/12/24 01:45:13;;;;;;;3.55;1.45;;;12.90;77.10;;;;;;5036675;28;20028;-86
2023/12/24 01:47:40;;;;;;;5.10;1.15;;;12.90;77.10;;;;;;5025020;28;20054;-84
2023/12/24 01:50:07;;;;;;;6.82;1.13;;;12.90;77.10;;;;;;5043636;28;20559;-85
2023/12/24 01:52:35;;;;;;;3.63;0.80;;;12.90;77.20;;;;;;5040865;28;20521;-86
2023/12/24 01:55:02;;;;;;;5.05;1.10;;;12.90;77.30;;;;;;5040096;28;20064;-85
2023/12/24 01:57:31;;;;;;;4.60;1.25;;;12.90;77.30;;;;;;5042391;28;20078;-85
2023/12/24 01:59:58;;;;;;;3.97;0.80;;;12.90;77.30;;;;;;5031457;28;20086;-85
2023/12/24 02:02:27;;;;;;;3.75;0.82;;;12.90;77.30;;;;;;5041313;28;20041;-86
2023/12/24 02:04:53;;;;;;;5.47;1.15;;;12.90;77.40;;;;;;5023366;28;20482;-84
2023/12/24 02:07:26;;;;;;;6.88;1.35;;;12.90;77.40;;;;;;5040802;28;20040;-84
2023/12/24 02:09:52;;;;;;;4.43;1.08;;;12.90;77.50;;;;;;5039056;28;20467;-85
2023/12/24 02:12:17;;;;;;;6.07;1.23;;;12.90;77.40;;;;;;5031777;28;20395;-83
2023/12/24 02:14:44;;;;;;;6.72;1.48;;;13.00;77.60;;;;;;5040356;28;20182;-84
2023/12/24 02:17:11;;;;;;;4.53;1.10;;;13.00;77.60;;;;;;5056128;28;20040;-84
2023/12/24 02:19:40;;;;;;;5.30;1.33;;;13.00;77.70;;;;;;5035137;28;20036;-85
2023/12/24 02:22:06;;;;;;;7.10;0.85;;;13.00;77.70;;;;;;5032491;28;20434;-84
2023/12/24 02:24:32;;;;;;;7.05;1.02;;;13.00;77.80;;;;;;5038787;28;20044;-84
2023/12/24 02:27:18;;;;;;;4.55;0.80;;;13.00;77.80;;;;;;5033460;28;20033;-84
2023/12/24 02:29:48;;;;;;;3.08;0.95;;;13.00;77.90;;;;;;5043360;28;20033;-84
2023/12/24 02:32:17;;;;;;;8.05;1.95;;;13.00;77.90;;;;;;5046938;28;20573;-86
2023/12/24 02:34:47;;;;;;;4.55;0.80;;;13.00;77.90;;;;;;5057145;28;20009;-85
2023/12/24 02:37:14;;;;;;;2.88;0.98;;;13.00;77.90;;;;;;5046526;28;20088;-82
2023/12/24 02:39:41;;;;;;;4.43;1.30;;;13.00;78.00;;;;;;5061815;28;20025;-85
2023/12/24 02:42:08;;;;;;;3.17;1.23;;;13.00;78.00;;;;;;5061441;28;20091;-82
2023/12/24 02:44:35;;;;;;;4.50;1.05;;;13.00;78.10;;;;;;5054466;28;20036;-85
2023/12/24 02:47:01;;;;;;;4.50;0.70;;;13.00;78.10;;;;;;5046349;28;20318;-83
2023/12/24 02:49:27;;;;;;;4.55;0.85;;;13.00;78.10;;;;;;5036495;28;20743;-85
2023/12/24 02:51:53;;;;;;;4.97;1.25;;;13.00;78.20;;;;;;5025328;28;20373;-85
2023/12/24 02:54:20;;;;;;;5.82;1.02;;;13.10;78.40;;;;;;5042063;28;20379;-85
2023/12/24 02:56:46;;;;;;;2.90;0.90;;;13.00;78.20;;;;;;5043453;28;20101;-85
2023/12/24 02:59:12;;;;;;;6.00;1.75;;;13.00;78.30;;;;;;5047993;28;20038;-85
2023/12/24 03:01:39;;;;;;;4.68;1.10;;;13.00;78.30;;;;;;5042627;28;20033;-85
2023/12/24 03:04:08;;;;;;;5.43;1.20;;;13.10;78.50;;;;;;5031873;28;20190;-86
2023/12/24 03:06:35;;;;;;;5.40;1.50;;;13.10;78.50;;;;;;5038999;28;20665;-86
2023/12/24 03:09:07;;;;;;;4.25;1.20;;;13.00;78.40;;;;;;5037557;28;20025;-85
2023/12/24 03:11:35;;;;;;;6.25;1.27;;;13.10;78.60;;;;;;5058017;28;20203;-86
2023/12/24 03:14:01;;;;;;;4.93;1.10;;;13.10;78.60;;;;;;5028929;28;20191;-86
2023/12/24 03:16:27;;;;;;;7.13;2.33;;;13.10;78.60;;;;;;5025947;28;20768;-85
2023/12/24 03:18:53;;;;;;;6.43;1.67;;;13.10;78.70;;;;;;5031458;28;20021;-85
2023/12/24 03:21:19;;;;;;;5.43;1.20;;;13.10;78.70;;;;;;5036631;28;20041;-86
2023/12/24 03:23:45;;;;;;;4.15;0.93;;;13.10;78.70;;;;;;5037050;28;20394;-86
2023/12/24 03:26:22;;;;;;;5.68;1.13;;;13.10;78.70;;;;;;5039957;28;20075;-86
2023/12/24 03:28:52;;;;;;;8.38;1.23;;;13.10;78.80;;;;;;5013416;28;20136;-87
2023/12/24 03:31:18;;;;;;;4.43;1.20;;;13.10;78.80;;;;;;5042680;28;20135;-87
2023/12/24 03:33:43;;;;;;;6.97;1.50;;;13.10;78.80;;;;;;5029241;28;20116;-86
2023/12/24 03:36:10;;;;;;;6.47;1.58;;;13.10;78.80;;;;;;5024600;28;20109;-86
2023/12/24 03:38:36;;;;;;;4.28;1.27;;;13.10;78.90;;;;;;5033622;28;20052;-85
2023/12/24 03:41:02;;;;;;;5.03;1.30;;;13.10;78.90;;;;;;5025018;28;20048;-86
2023/12/24 03:43:29;;;;;;;6.30;1.73;;;13.20;79.10;;;;;;5050472;28;20135;-86
2023/12/24 03:45:55;;;;;;;8.40;1.30;;;13.20;79.10;;;;;;5031557;28;20072;-86
2023/12/24 03:48:21;;;;;;;7.68;1.60;;;13.10;78.90;;;;;;5022607;28;20642;-86
2023/12/24 03:50:47;;;;;;;11.70;2.20;;;13.20;79.20;;;;;;5034024;28;20032;-83
2023/12/24 03:53:13;;;;;;;6.80;1.30;;;13.10;79.00;;;;;;5051352;28;20033;-86
2023/12/24 03:55:39;;;;;;;4.57;1.50;;;13.20;79.20;;;;;;5022100;28;20032;-84
2023/12/24 03:58:05;;;;;;;5.25;1.50;;;13.20;79.20;;;;;;5044387;28;20033;-85
2023/12/24 04:00:31;;;;;;;9.10;2.22;;;13.20;79.20;;;;;;5031225;28;20037;-82
2023/12/24 04:02:59;;;;;;;8.27;2.45;;;13.20;79.20;;;;;;5033592;28;20351;-84
2023/12/24 04:05:25;;;;;;;5.55;1.58;;;13.20;79.20;;;;;;5050546;28;20445;-84
2023/12/24 04:07:54;;;;;;;8.70;2.30;;;13.20;79.20;;;;;;5048983;28;20076;-85
2023/12/24 04:10:21;;;;;;;7.28;2.03;;;13.20;79.30;;;;;;5039578;28;20036;-84
2023/12/24 04:12:47;;;;;;;7.85;1.58;;;13.20;79.30;;;;;;5042521;28;20025;-84
2023/12/24 04:15:13;;;;;;;7.55;2.08;;;13.20;79.30;;;;;;5025569;28;20036;-84
2023/12/24 04:17:40;;;;;;;9.82;2.25;;;13.20;79.30;;;;;;5024952;28;20536;-85
2023/12/24 04:20:07;;;;;;;10.57;3.00;;;13.20;79.40;;;;;;5037461;28;20513;-84
2023/12/24 04:22:33;;;;;;;11.02;2.50;;;13.20;79.40;;;;;;5053207;28;20059;-84
2023/12/24 04:24:59;;;;;;;10.35;2.80;;;13.20;79.40;;;;;;5043457;28;20581;-86
2023/12/24 04:27:25;;;;;;;8.70;1.85;;;13.20;79.40;;;;;;5022723;28;20068;-85
2023/12/24 04:29:51;;;;;;;8.18;2.22;;;13.20;79.40;;;;;;5028971;28;20076;-84
2023/12/24 04:32:20;;;;;;;8.15;1.98;;;13.20;79.50;;;;;;5040670;28;20549;-84
2023/12/24 04:34:46;;;;;;;9.07;3.25;;;13.20;79.50;;;;;;5014476;28;20034;-84
2023/12/24 04:37:12;;;;;;;12.95;2.95;;;13.20;79.50;;;;;;5022544;28;20032;-83
2023/12/24 04:39:38;;;;;;;8.75;1.80;;;13.20;79.60;;;;;;5020637;28;20045;-86
2023/12/24 04:42:04;;;;;;;7.88;2.40;;;13.20;79.60;;;;;;5036855;28;20062;-85
2023/12/24 04:44:31;;;;;;;5.97;2.20;;;13.20;79.60;;;;;;5019545;28;20036;-86
2023/12/24 04:46:57;;;;;;;8.75;2.60;;;13.20;79.60;;;;;;5028356;28;20046;-87
2023/12/24 04:49:23;;;;;;;9.98;2.80;;;13.20;79.60;;;;;;5045727;28;20037;-85
2023/12/24 04:51:49;;;;;;;9.15;2.63;;;13.20;79.60;;;;;;5036349;28;20117;-85
2023/12/24 04:54:15;;;;;;;8.07;2.65;;;13.20;79.60;;;;;;5032231;28;20470;-84
2023/12/24 04:56:41;;;;;;;10.00;2.33;;;13.20;79.70;;;;;;5019951;28;20044;-85
2023/12/24 04:59:07;;;;;;;9.85;2.92;;;13.20;79.70;;;;;;5030272;28;20422;-85
2023/12/24 05:01:33;;;;;;;7.93;2.13;;;13.20;79.70;;;;;;5052938;28;20064;-86
2023/12/24 05:03:59;;;;;;;6.88;2.20;;;13.20;79.70;;;;;;5036851;28;20095;-85
2023/12/24 05:06:28;;;;;;;6.32;1.50;;;13.20;79.70;;;;;;5039012;28;20442;-85
2023/12/24 05:08:55;;;;;;;8.07;1.55;;;13.20;79.80;;;;;;5039013;28;20496;-85
2023/12/24 05:11:21;;;;;;;9.30;2.58;;;13.20;79.80;;;;;;5021889;28;20143;-85
2023/12/24 05:13:50;;;;;;;4.22;1.58;;;13.20;79.80;;;;;;5037981;28;20025;-82
2023/12/24 05:16:16;;;;;;;8.00;1.88;;;13.20;79.90;;;;;;5036546;28;20134;-84
2023/12/24 05:18:45;;;;;;;7.75;2.00;;;13.20;79.80;;;;;;5044407;28;20040;-84
2023/12/24 05:21:11;;;;;;;5.80;2.25;;;13.20;80.40;;;;;;5025581;28;20475;-84
2023/12/24 05:23:37;;;;;;;9.10;2.35;;;13.20;80.00;;;;;;5018386;28;20048;-84
2023/12/24 05:26:03;;;;;;;7.88;2.63;;;13.20;80.00;;;;;;5026507;28;20551;-83
2023/12/24 05:28:29;;;;;;;7.15;1.83;;;13.20;80.00;;;;;;5042191;28;20142;-85
2023/12/24 05:30:55;;;;;;;4.65;1.58;;;13.20;80.00;;;;;;5042410;28;20052;-84
2023/12/24 05:33:21;;;;;;;7.97;1.85;;;13.20;80.00;;;;;;5039463;28;20501;-85
2023/12/24 05:35:48;;;;;;;5.18;1.63;;;13.20;80.00;;;;;;5045304;28;20063;-83
2023/12/24 05:38:14;;;;;;;4.50;1.83;;;13.20;80.00;;;;;;5045191;28;20067;-85
2023/12/24 05:40:40;;;;;;;6.90;2.25;;;13.20;80.00;;;;;;5055659;28;20032;-85
2023/12/24 05:43:06;;;;;;;7.43;1.90;;;13.20;80.00;;;;;;5038908;28;20151;-84
2023/12/24 05:45:33;;;;;;;9.50;1.95;;;13.30;80.20;;;;;;5033443;28;20021;-85
2023/12/24 05:48:00;;;;;;;7.00;1.60;;;13.20;80.10;;;;;;5038866;28;20061;-86
2023/12/24 05:50:26;;;;;;;9.23;1.50;;;13.30;80.30;;;;;;5042224;28;20032;-84
2023/12/24 05:52:52;;;;;;;7.03;1.85;;;13.30;80.20;;;;;;5035793;28;20554;-85
2023/12/24 05:55:18;;;;;;;6.55;2.00;;;13.30;80.80;;;;;;5041315;28;20155;-84
2023/12/24 05:57:45;;;;;;;4.47;1.20;;;13.20;80.10;;;;;;5032521;28;20561;-84
2023/12/24 06:00:12;;;;;;;6.80;1.63;;;13.30;80.30;;;;;;5044577;28;20077;-85
2023/12/24 06:02:47;;;;;;;7.07;2.53;;;13.30;80.30;;;;;;5042748;28;20115;-85
2023/12/24 06:05:14;;;;;;;8.70;2.55;;;13.30;80.30;;;;;;5035489;28;20490;-86
2023/12/24 06:07:44;;;;;;;4.13;1.38;;;13.30;80.40;;;;;;5036144;28;20029;-86
2023/12/24 06:10:10;;;;;;;7.22;1.98;;;13.30;80.40;;;;;;5044747;28;20029;-87
2023/12/24 06:12:36;;;;;;;4.28;1.20;;;13.30;80.40;;;;;;5027838;28;20039;-86
2023/12/24 06:15:04;;;;;;;7.47;2.15;;;13.30;80.40;;;;;;5046424;28;20036;-83
2023/12/24 06:17:31;;;;;;;7.28;1.95;;;13.30;80.40;;;;;;5040989;28;20028;-85
2023/12/24 06:19:57;;;;;;;6.15;1.30;;;13.30;80.50;;;;;;5042284;28;20028;-86
2023/12/24 06:22:23;;;;;;;7.15;1.20;;;13.30;80.50;;;;;;5027502;28;20163;-85
2023/12/24 06:24:49;;;;;;;3.50;1.10;;;13.30;80.50;;;;;;5038359;28;20035;-87
2023/12/24 06:27:15;;;;;;;4.72;1.52;;;13.30;80.50;;;;;;5053702;28;20501;-85
2023/12/24 06:29:41;;;;;;;5.80;1.65;;;13.30;80.50;;;;;;5035865;28;20372;-85
2023/12/24 06:32:08;;;;;;;5.60;1.15;;;13.30;80.50;;;;;;5040027;28;20080;-85
2023/12/24 06:34:34;;;;;;;6.03;1.17;;;13.30;80.60;;;;;;5043627;28;20490;-83
2023/12/24 06:37:00;;;;;;;4.60;1.50;;;13.30;80.60;;;;;;5034646;28;20049;-83
2023/12/24 06:39:26;;;;;;;7.53;1.80;;;13.30;80.60;;;;;;5035660;28;20064;-83
2023/12/24 06:41:53;;;;;;;5.55;1.52;;;13.30;80.60;;;;;;5035257;28;20263;-82
2023/12/24 06:44:22;;;;;;;6.43;1.40;;;13.30;80.60;;;;;;5031439;28;20025;-81
2023/12/24 06:46:48;;;;;;;9.75;1.80;;;13.30;80.70;;;;;;5035042;28;20478;-82
2023/12/24 06:49:13;;;;;;;5.82;1.92;;;13.30;80.70;;;;;;5041059;28;20120;-84
2023/12/24 06:51:39;;;;;;;7.18;1.50;;;13.30;80.70;;;;;;5038273;28;20040;-81
2023/12/24 06:54:05;;;;;;;6.72;1.17;;;13.30;80.70;;;;;;5040000;28;20029;-82
2023/12/24 06:56:34;;;;;;;4.95;1.55;;;13.30;80.70;;;;;;5037261;28;20391;-83
2023/12/24 06:59:01;;;;;;;5.43;1.42;;;13.30;80.70;;;;;;5034653;28;20041;-83
2023/12/24 07:01:30;;;;;;;4.43;1.17;;;13.30;80.70;;;;;;5054535;28;20102;-81
2023/12/24 07:03:56;;;;;;;5.55;1.50;;;13.30;80.80;;;;;;5036601;28;20108;-81
2023/12/24 07:06:22;;;;;;;6.93;1.67;;;13.30;80.80;;;;;;5045098;28;20032;-82
2023/12/24 07:08:49;;;;;;;5.03;1.30;;;13.30;80.80;;;;;;5033969;28;20438;-83
2023/12/24 07:11:15;;;;;;;5.38;1.60;;;13.30;80.90;;;;;;5031610;28;20063;-80
2023/12/24 07:13:41;;;;;;;5.57;1.35;;;13.30;80.80;;;;;;5031912;28;20467;-82
2023/12/24 07:16:08;;;;;;;4.85;1.27;;;13.30;80.90;;;;;;5037153;28;20123;-81
2023/12/24 07:18:34;;;;;;;5.35;1.45;;;13.30;80.90;;;;;;5037658;28;20263;-79
2023/12/24 07:21:00;;;;;;;5.95;1.98;;;13.30;80.90;;;;;;5036844;28;20478;-83
2023/12/24 07:23:26;;;;;;;6.20;1.17;;;13.30;80.90;;;;;;5034405;28;20032;-83
2023/12/24 07:25:51;;;;;;;7.85;3.25;;;13.30;80.90;;;;;;5052438;28;20641;-83
2023/12/24 07:28:18;;;;;;;7.55;1.25;;;13.30;81.00;;;;;;5050963;28;20037;-85
2023/12/24 07:30:44;;;;;;;3.70;0.98;;;13.30;81.00;;;;;;5034350;28;20041;-83
2023/12/24 07:33:11;;;;;;;6.75;2.20;;;13.30;81.00;;;;;;5053321;28;20036;-85
2023/12/24 07:35:40;;;;;;;8.52;2.80;;;13.30;81.00;;;;;;5036386;28;20044;-84
2023/12/24 07:38:06;;;;;;;6.20;2.67;;;13.30;81.00;;;;;;5036672;28;20037;-82
2023/12/24 07:40:32;;;;;;;5.60;1.20;;;13.40;81.20;;;;;;5035851;28;20782;-86
2023/12/24 07:42:59;;;;;;;6.57;1.17;;;13.30;81.00;;;;;;5030442;28;20185;-81
2023/12/24 07:45:27;;;;;;;5.28;1.77;;;13.30;81.10;;;;;;5032825;28;20028;-82
2023/12/24 07:47:53;;;;;;;9.65;2.38;;;13.30;81.10;;;;;;5033903;28;20403;-80
2023/12/24 07:50:19;;;;;;;7.18;1.83;;;13.30;81.10;;;;;;5032506;28;20117;-82
2023/12/24 07:52:45;;;;;;;6.68;1.42;;;13.40;81.30;;;;;;5033573;28;20148;-81
2023/12/24 07:55:11;;;;;;;8.20;2.47;;;13.30;81.20;;;;;;5033070;28;20114;-81
2023/12/24 07:57:37;;;;;;;3.33;1.52;;;13.30;81.20;;;;;;5034274;28;20033;-83
2023/12/24 08:00:08;;;;;;;5.10;1.30;;;13.30;81.20;;;;;;5037027;28;20461;-82
2023/12/24 08:02:39;;;;;;;7.65;1.65;;;13.30;81.20;;;;;;5038470;28;20144;-83
2023/12/24 08:05:07;;;;;;;4.50;1.50;;;13.30;81.20;;;;;;5057533;28;20040;-83
2023/12/24 08:07:33;;;;;;;4.18;1.13;;;13.30;81.30;;;;;;5044851;28;20125;-84
2023/12/24 08:09:59;;;;;;;5.53;1.20;;;13.40;81.40;;;;;;5053790;28;20055;-85
2023/12/24 08:12:25;;;;;;;6.00;1.52;;;13.30;81.30;;;;;;5048112;28;20041;-81
2023/12/24 08:14:51;;;;;;;5.45;1.40;;;13.40;81.50;;;;;;5048932;28;20193;-83
2023/12/24 08:17:17;;;;;;;4.15;1.55;;;13.40;81.60;;;;;;5044386;28;20036;-81
2023/12/24 08:19:43;;;;;;;4.30;1.27;;;13.40;81.70;;;;;;5049013;28;20099;-83
2023/12/24 08:22:10;;;;;;;10.85;3.03;;;13.40;81.70;;;;;;5060647;28;20346;-81
2023/12/24 08:24:38;;;;;;;11.15;3.15;;;13.40;81.70;;;;;;5040756;28;20039;-82
2023/12/24 08:27:04;;;;;;;14.32;4.28;;;13.50;81.90;;;;;;5064136;28;20102;-84
2023/12/24 08:29:31;;;;;;;18.65;7.40;;;13.50;81.80;;;;;;5075081;28;20207;-82
2023/12/24 08:31:57;;;;;;;17.25;6.05;;;13.50;81.80;;;;;;5053182;28;20040;-82
2023/12/24 08:34:24;;;;;;;16.90;5.97;;;13.50;81.80;;;;;;5058193;28;20038;-81
2023/12/24 08:36:50;;;;;;;16.50;5.50;;;13.60;82.10;;;;;;5043039;28;20351;-84
2023/12/24 08:39:16;;;;;;;20.23;7.20;;;13.60;82.10;;;;;;5037055;28;20025;-83
2023/12/24 08:41:43;;;;;;;24.52;8.60;;;13.60;82.20;;;;;;5067649;28;20479;-87
2023/12/24 08:44:09;;;;;;;20.42;8.05;;;13.60;82.70;;;;;;5057874;28;20060;-88
2023/12/24 08:46:35;;;;;;;24.38;8.20;;;13.60;82.40;;;;;;5028003;28;20431;-87
2023/12/24 08:49:01;;;;;;;22.60;7.35;;;13.70;82.70;;;;;;5035452;28;20033;-86
2023/12/24 08:51:28;;;;;;;16.17;6.10;;;13.90;83.00;;;;;;5025995;28;20033;-83
2023/12/24 08:53:57;;;;;;;18.95;7.30;;;14.00;83.00;;;;;;5046410;28;20108;-87
2023/12/24 08:56:23;;;;;;;17.58;7.28;;;14.20;83.00;;;;;;5069873;28;20371;-89
2023/12/24 08:58:49;;;;;;;18.48;6.93;;;14.30;82.70;;;;;;5035380;28;20051;-88
2023/12/24 09:01:16;;;;;;;15.57;5.88;;;14.50;82.60;;;;;;5051522;28;20048;-89
2023/12/24 09:03:43;;;;;;;12.40;5.40;;;14.70;82.50;;;;;;5047656;28;20097;-88
2023/12/24 09:06:09;;;;;;;12.90;5.00;;;14.80;82.20;;;;;;5066848;28;20052;-90
2023/12/24 09:08:37;;;;;;;15.25;5.00;;;14.90;81.90;;;;;;5060891;28;20036;-89
2023/12/24 09:11:06;;;;;;;15.82;5.55;;;15.10;81.80;;;;;;5066900;28;20251;-90
2023/12/24 09:13:32;;;;;;;9.15;4.30;;;15.20;81.50;;;;;;5052128;28;20098;-89
2023/12/24 09:15:58;;;;;;;8.75;3.85;;;15.30;81.30;;;;;;5054573;28;20033;-89
2023/12/24 09:18:24;;;;;;;12.10;3.83;;;15.40;81.00;;;;;;5040935;28;20036;-88
2023/12/24 09:20:51;;;;;;;10.77;3.88;;;15.60;81.00;;;;;;5041518;28;20044;-93
2023/12/24 09:23:18;;;;;;;7.07;3.67;;;15.60;80.60;;;;;;5011376;28;20066;-85
2023/12/24 09:25:45;;;;;;;8.82;3.58;;;15.70;80.30;;;;;;5031490;28;20032;-81
2023/12/24 09:28:11;;;;;;;8.63;2.50;;;15.80;80.00;;;;;;5049384;28;20033;-81
2023/12/24 09:30:37;;;;;;;9.00;2.83;;;15.80;79.70;;;;;;5051288;28;20049;-81
2023/12/24 09:33:06;;;;;;;6.38;2.25;;;15.80;79.40;;;;;;5034037;28;20037;-81
2023/12/24 09:35:32;;;;;;;6.78;2.60;;;15.70;79.20;;;;;;5037933;28;20120;-83
2023/12/24 09:37:59;;;;;;;4.30;2.20;;;15.70;79.10;;;;;;5039884;28;20568;-84
2023/12/24 09:40:27;;;;;;;4.03;1.67;;;15.60;78.90;;;;;;5025527;28;20598;-84
2023/12/24 09:42:54;;;;;;;6.68;1.83;;;15.60;79.00;;;;;;5041126;28;20144;-81
2023/12/24 09:45:21;;;;;;;5.28;1.90;;;15.50;78.80;;;;;;5034242;28;20033;-84
2023/12/24 09:47:51;;;;;;;6.13;2.00;;;15.40;78.70;;;;;;5035055;28;20067;-81
2023/12/24 09:50:17;;;;;;;4.50;1.42;;;15.40;78.80;;;;;;5030643;28;20329;-81
2023/12/24 09:52:45;;;;;;;6.78;1.70;;;15.30;78.70;;;;;;5034869;28;20178;-81
2023/12/24 09:55:11;;;;;;;4.00;1.15;;;15.20;78.60;;;;;;5017970;28;20303;-82
2023/12/24 09:57:38;;;;;;;3.85;1.70;;;15.20;78.60;;;;;;5035528;28;20048;-81
2023/12/24 10:00:08;;;;;;;3.70;1.33;;;15.10;78.50;;;;;;5034210;28;20060;-83
2023/12/24 10:02:36;;;;;;;3.65;1.60;;;15.10;78.60;;;;;;5042595;28;20148;-82
2023/12/24 10:05:03;;;;;;;3.05;1.05;;;15.00;78.50;;;;;;5023701;28;20849;-82
2023/12/24 10:07:39;;;;;;;3.28;0.90;;;15.00;78.50;;;;;;5025526;28;20767;-82
2023/12/24 10:10:11;;;;;;;2.83;0.90;;;14.90;78.40;;;;;;5026939;28;20432;-83
2023/12/24 10:12:37;;;;;;;4.30;1.27;;;14.90;78.40;;;;;;5037509;28;20041;-83
2023/12/24 10:15:04;;;;;;;2.33;1.20;;;14.90;78.40;;;;;;5030549;28;20033;-85
2023/12/24 10:17:32;;;;;;;3.88;1.25;;;14.80;78.30;;;;;;5034783;28;20271;-88
2023/12/24 10:19:59;;;;;;;3.63;1.00;;;14.80;78.30;;;;;;5034698;28;20083;-84
2023/12/24 10:22:25;;;;;;;1.88;0.82;;;14.80;78.30;;;;;;5045557;28;20138;-83
2023/12/24 10:25:06;;;;;;;3.88;0.93;;;14.80;78.40;;;;;;5024710;28;20034;-82
2023/12/24 10:27:34;;;;;;;7.30;1.85;;;14.80;78.40;;;;;;5032638;28;20049;-82
2023/12/24 10:30:14;;;;;;;3.67;1.60;;;14.70;78.20;;;;;;5037392;28;20410;-83
2023/12/24 10:32:43;;;;;;;2.30;1.02;;;14.70;78.20;;;;;;5037055;28;21034;-84
2023/12/24 10:35:10;;;;;;;1.73;0.73;;;14.70;78.10;;;;;;5036728;28;20473;-84
2023/12/24 10:37:37;;;;;;;1.50;0.68;;;14.70;78.10;;;;;;5050024;28;20037;-84
2023/12/24 10:40:10;;;;;;;2.75;0.70;;;14.80;78.30;;;;;;5047748;28;20024;-84
2023/12/24 10:42:40;;;;;;;2.83;0.70;;;14.70;78.00;;;;;;5051628;28;20469;-84
2023/12/24 10:45:08;;;;;;;2.30;0.75;;;14.70;78.00;;;;;;5026793;28;20445;-86
2023/12/24 10:47:35;;;;;;;2.85;1.13;;;14.70;78.00;;;;;;5033342;28;20076;-85
2023/12/24 10:50:03;;;;;;;2.58;1.10;;;14.70;78.00;;;;;;5032996;28;20064;-85
2023/12/24 10:52:29;;;;;;;1.60;0.50;;;14.70;78.00;;;;;;5035665;28;20044;-85
2023/12/24 10:54:58;;;;;;;3.65;1.35;;;14.70;78.00;;;;;;5039608;28;20111;-85
2023/12/24 10:57:45;;;;;;;4.07;0.98;;;14.70;77.90;;;;;;5052817;28;20025;-84
2023/12/24 11:00:14;;;;;;;2.20;0.60;;;14.70;77.90;;;;;;5037330;28;20284;-85
2023/12/24 11:02:45;;;;;;;4.93;1.13;;;14.70;77.90;;;;;;5035288;28;20422;-85
2023/12/24 11:05:12;;;;;;;4.40;0.80;;;14.70;77.90;;;;;;5039368;28;20066;-87
2023/12/24 11:07:47;;;;;;;4.13;1.02;;;14.70;77.90;;;;;;5044774;28;20088;-86
2023/12/24 11:10:42;;;;;;;2.85;0.60;;;14.70;77.90;;;;;;5054904;28;20115;-84
2023/12/24 11:13:31;;;;;;;2.28;1.10;;;14.70;77.90;;;;;;5042848;28;20045;-84
2023/12/24 11:16:07;;;;;;;2.78;1.15;;;14.70;77.90;;;;;;5018483;28;20128;-85
2023/12/24 11:18:48;;;;;;;2.17;0.90;;;14.70;77.80;;;;;;5033663;28;20297;-82
2023/12/24 11:21:15;;;;;;;1.75;0.50;;;14.80;77.90;;;;;;5045485;28;20136;-85
2023/12/24 11:24:02;;;;;;;5.15;2.65;;;14.80;77.90;;;;;;5038154;28;20036;-84
2023/12/24 11:26:32;;;;;;;2.42;1.08;;;14.80;77.90;;;;;;5027505;28;20045;-85
2023/12/24 11:29:22;;;;;;;3.90;0.98;;;14.80;77.90;;;;;;5037039;28;20065;-83
2023/12/24 11:31:53;;;;;;;4.75;1.10;;;14.80;77.90;;;;;;5043730;28;20278;-84
2023/12/24 11:34:32;;;;;;;3.47;0.90;;;14.80;78.00;;;;;;5004379;28;20057;-85
2023/12/24 11:37:03;;;;;;;5.10;1.20;;;14.80;77.90;;;;;;5035876;28;20526;-83
2023/12/24 11:39:58;;;;;;;3.45;0.80;;;14.80;78.00;;;;;;5015381;28;20055;-85
2023/12/24 11:42:48;;;;;;;4.28;0.88;;;14.80;78.00;;;;;;5021790;28;20034;-84
2023/12/24 11:45:23;;;;;;;4.28;1.77;;;14.90;78.10;;;;;;5029138;28;20131;-84
2023/12/24 11:47:50;;;;;;;2.60;1.10;;;14.90;78.10;;;;;;5032048;28;20538;-83
2023/12/24 11:50:16;;;;;;;3.50;1.15;;;14.90;78.70;;;;;;5046045;28;20051;-87
2023/12/24 11:52:48;;;;;;;3.25;0.85;;;14.90;78.10;;;;;;5061937;28;20033;-84
2023/12/24 11:55:15;;;;;;;1.85;0.82;;;14.90;78.10;;;;;;5045615;28;20037;-86
2023/12/24 11:57:42;;;;;;;3.38;1.00;;;14.90;78.10;;;;;;5031009;28;20048;-80
2023/12/24 12:00:28;;;;;;;2.85;1.13;;;14.90;78.10;;;;;;5063039;28;20087;-82
2023/12/24 12:02:59;;;;;;;1.20;0.50;;;14.90;78.20;;;;;;5053580;28;20029;-82
2023/12/24 12:05:25;;;;;;;3.13;1.13;;;14.90;78.20;;;;;;5047709;28;20053;-83
2023/12/24 12:07:52;;;;;;;2.92;1.05;;;14.90;78.20;;;;;;5053167;28;20088;-82
2023/12/24 12:10:21;;;;;;;3.38;1.40;;;14.90;78.20;;;;;;5050468;28;20029;-82
2023/12/24 12:12:47;;;;;;;3.13;1.35;;;14.90;78.20;;;;;;5060884;28;20539;-81
2023/12/24 12:15:14;;;;;;;5.00;0.60;;;14.90;78.20;;;;;;5074410;28;20029;-91
2023/12/24 12:17:40;;;;;;;22.17;2.88;;;14.90;78.30;;;;;;5049672;28;20028;-82
2023/12/24 12:20:07;;;;;;;6.95;2.42;;;15.00;78.70;;;;;;5032717;28;20041;-84
2023/12/24 12:22:33;;;;;;;1.52;0.50;;;15.00;78.80;;;;;;5030898;28;20017;-85
2023/12/24 12:24:59;;;;;;;4.05;0.80;;;15.10;79.00;;;;;;5034015;28;20056;-84
2023/12/24 12:27:25;;;;;;;3.78;0.75;;;15.10;78.80;;;;;;5042030;28;20068;-84
2023/12/24 12:29:51;;;;;;;4.03;0.85;;;15.20;78.90;;;;;;5040031;28;20040;-84
2023/12/24 12:32:18;;;;;;;2.80;1.77;;;15.20;78.80;;;;;;5044979;28;20346;-82
2023/12/24 12:34:44;;;;;;;2.53;0.70;;;15.20;78.70;;;;;;5040469;28;20043;-82
2023/12/24 12:37:10;;;;;;;2.45;0.60;;;15.20;78.70;;;;;;5044057;28;20107;-82
2023/12/24 12:39:36;;;;;;;1.88;0.73;;;15.20;78.70;;;;;;5039001;28;20028;-82
2023/12/24 12:42:04;;;;;;;3.40;1.05;;;15.20;78.70;;;;;;5042079;28;20123;-83
2023/12/24 12:44:30;;;;;;;2.67;0.75;;;15.20;78.60;;;;;;5059607;28;20140;-82
2023/12/24 12:46:57;;;;;;;2.97;1.20;;;15.20;78.60;;;;;;5064806;28;20041;-85